Sylvania, GA

3:48 AM EDT on July 29, 2014 (GMT -0400)
Plantation (KJYL) Elev 187 ft | 32.65 °N, 81.60 °W | Change Station

Current weather conditions updated 13 minutes ago

Clear
Clear
72 °F
Feels Like 72 °F
N
4
Wind Variable Wind from NW

Today is forecast to be Cooler than yesterday.

Today
High -- | Low -- °F
--% Chance of Precip.
Yesterday
High -- | Low -- °F
Precip. -- in
6:38 AM 8:27 PM
Waxing Crescent, 5% visible
Pressure 29.88 in
Visibility 10.0 miles
Clouds Clear
Dew Point 70 °F
Humidity 95%
Rainfall 0.00 in
Snow Depth Not available.
UV 0 out of 12
Pollen 5.90 out of 12
Air Quality Not available.
Flu Activity Not available.
METAR KJYL 290735Z AUTO 32003KT 10SM CLR 22/21 A2988 RMK AO2 T02200211

More Conditions Fewer Conditions

Pressure 29.88 in
Visibility 10.0 miles
Clouds Clear
Dew Point 70 °F
Humidity 95%
Rainfall 0.00 in
Snow Depth Not available.
UV 0 out of 12
Pollen 5.90 out of 12
Air Quality Not available.
Flu Activity Not available.
METAR KJYL 290735Z AUTO 32003KT 10SM CLR 22/21 A2988 RMK AO2 T02200211

More Conditions Fewer Conditions

10-Day Weather Forecast

Almanac

Astronomy

Jul. 29, 2014 Rise Set
Actual Time 6:38 AM EDT 8:27 PM EDT
Civil Twilight 6:11 AM EDT 8:54 PM EDT
Nautical Twilight 5:38 AM EDT 9:27 PM EDT
Astronomical Twilight 5:03 AM EDT 10:01 PM EDT
Moon 9:02 AM EDT 9:51 PM EDT
Length of Visible Light 14h 43m
Length of Day
13h 49m
Tomorrow will be 1m 27s shorter.
Waxing Crescent, 5% of the Moon is Illuminated
Today
Waxing Crescent
Aug 3
First Quarter
Aug 10
Full
Aug 17
Last Quarter
Aug 25
New

Today's Extremes

State Highs State Lows

Community

WunderPhotos

Upload Photos

1,738,651 photos uploaded!

Nearby

Snow Depth

Station Depth Elevation
No new snow has been reported.

Earthquake Activity

City Distance Mag. Time & Date
No recent earthquake activity has been reported nearby.
Minimum magnitude displayed is 2.5.

Coastal Water Temperatures

Place Temperature
No Stations Reporting

Nearby Weather Stations

There are no personal weather stations in this area.